createdAt,value
2019-06-07T00:00:38.193Z,91.13
2019-06-07T00:01:25.338Z,91.31
2019-06-07T00:02:25.390Z,91.41
2019-06-07T00:03:29.934Z,91.70
2019-06-07T00:04:25.501Z,91.13
2019-06-07T00:05:25.557Z,90.84
2019-06-07T00:06:26.063Z,91.22
2019-06-07T00:07:25.671Z,90.84
2019-06-07T00:08:28.987Z,91.03
2019-06-07T00:09:25.781Z,90.84
2019-06-07T00:10:35.809Z,90.65
2019-06-07T00:11:25.892Z,90.56
2019-06-07T00:12:25.949Z,90.84
2019-06-07T00:13:26.025Z,91.13
2019-06-07T00:14:26.060Z,90.75
2019-06-07T00:15:28.911Z,90.75
2019-06-07T00:16:26.170Z,90.46
2019-06-07T00:17:26.248Z,90.17
2019-06-07T00:18:26.391Z,90.46
2019-06-07T00:19:26.342Z,90.75
2019-06-07T00:20:26.395Z,90.75
2019-06-07T00:22:12.735Z,90.56
2019-06-07T00:22:32.902Z,90.27
2019-06-07T00:23:26.596Z,90.70
2019-06-07T00:24:26.615Z,90.03
2019-06-07T00:25:26.672Z,90.13
2019-06-07T00:26:26.726Z,90.08
2019-06-07T00:27:26.785Z,90.46
2019-06-07T00:28:26.837Z,90.46
2019-06-07T00:29:26.896Z,89.41
2019-06-07T00:30:41.081Z,90.17
2019-06-07T00:31:27.006Z,89.13
2019-06-07T00:32:27.062Z,89.03
2019-06-07T00:33:27.116Z,90.17
2019-06-07T00:34:27.171Z,89.70
2019-06-07T00:35:27.227Z,90.08
2019-06-07T00:36:27.282Z,90.84
2019-06-07T00:37:27.340Z,90.56
2019-06-07T00:38:27.413Z,90.94
2019-06-07T00:39:27.449Z,90.27
2019-06-07T00:40:32.010Z,90.46
2019-06-07T00:41:27.585Z,90.89
2019-06-07T00:42:27.619Z,90.13
2019-06-07T00:43:28.614Z,90.22
2019-06-07T00:44:27.745Z,90.27
2019-06-07T00:45:27.783Z,90.22
2019-06-07T00:46:27.837Z,90.70
2019-06-07T00:47:27.894Z,90.89
2019-06-07T00:48:32.581Z,90.99
2019-06-07T00:49:40.362Z,89.84
2019-06-07T00:50:28.061Z,90.42
2019-06-07T00:51:47.569Z,91.08
2019-06-07T00:53:32.150Z,90.03
2019-06-07T00:54:28.282Z,89.32
2019-06-07T00:55:28.338Z,89.79
2019-06-07T00:56:28.395Z,89.98
2019-06-07T00:57:28.452Z,90.84
2019-06-07T00:58:29.546Z,90.75
2019-06-07T00:59:29.738Z,91.41
2019-06-07T01:00:28.615Z,91.94
2019-06-07T01:01:28.670Z,91.17
2019-06-07T01:02:31.472Z,91.17
2019-06-07T01:03:28.782Z,90.94
2019-06-07T01:04:28.959Z,90.94
2019-06-07T01:05:31.332Z,90.56
2019-06-07T01:06:28.948Z,91.70
2019-06-07T01:07:29.004Z,91.03
2019-06-07T01:08:30.269Z,91.41
2019-06-07T01:09:29.118Z,92.22
2019-06-07T01:10:52.410Z,91.70
2019-06-07T01:11:29.224Z,91.31
2019-06-07T01:12:29.281Z,92.65
2019-06-07T01:13:29.381Z,91.51
2019-06-07T01:14:29.416Z,92.13
2019-06-07T01:15:29.527Z,92.65
2019-06-07T01:16:53.067Z,92.51
2019-06-07T01:17:40.855Z,92.51
2019-06-07T01:18:42.917Z,91.75
2019-06-07T01:19:29.670Z,91.94
2019-06-07T01:20:29.774Z,91.70
2019-06-07T01:21:30.108Z,90.99
2019-06-07T01:22:29.835Z,91.89
2019-06-07T01:24:29.947Z,92.03
2019-06-07T01:25:30.059Z,91.65
2019-06-07T01:26:30.575Z,91.27
2019-06-07T01:27:30.114Z,91.17
2019-06-07T01:28:30.390Z,91.17
2019-06-07T01:29:31.197Z,91.37
2019-06-07T01:30:30.282Z,91.27
2019-06-07T01:31:31.539Z,91.22
2019-06-07T01:32:31.830Z,91.41
2019-06-07T01:33:49.918Z,91.60
2019-06-07T01:34:30.504Z,91.60
2019-06-07T01:35:30.561Z,91.03
2019-06-07T01:36:31.094Z,91.22
2019-06-07T01:37:30.672Z,90.94
2019-06-07T01:38:30.727Z,91.03
2019-06-07T01:39:31.874Z,90.75
2019-06-07T01:40:32.915Z,90.94
2019-06-07T01:41:31.065Z,90.36
2019-06-07T01:42:31.208Z,90.08
2019-06-07T01:43:31.318Z,89.98
2019-06-07T01:44:31.467Z,91.13
2019-06-07T01:45:31.314Z,91.37
2019-06-07T01:46:31.206Z,91.60
2019-06-07T01:47:31.998Z,92.22
2019-06-07T01:48:48.586Z,92.55
2019-06-07T01:49:31.340Z,92.41
2019-06-07T01:50:31.440Z,91.84
2019-06-07T01:51:31.450Z,91.60
2019-06-07T01:52:31.505Z,91.70
2019-06-07T01:53:31.838Z,92.65
2019-06-07T01:55:32.755Z,92.32
2019-06-07T01:56:31.728Z,92.22
2019-06-07T01:57:45.476Z,91.84
2019-06-07T01:58:31.838Z,91.46
2019-06-07T01:59:32.126Z,91.37
2019-06-07T02:00:32.716Z,91.84
2019-06-07T02:01:35.289Z,91.08
2019-06-07T02:02:32.062Z,91.94
2019-06-07T02:03:33.103Z,91.27
2019-06-07T02:04:33.365Z,91.27
2019-06-07T02:05:32.507Z,91.94
2019-06-07T02:06:32.402Z,91.84
2019-06-07T02:07:33.377Z,92.41
2019-06-07T02:08:34.360Z,92.03
2019-06-07T02:09:32.466Z,91.46
2019-06-07T02:10:33.766Z,91.56
2019-06-07T02:11:33.692Z,91.79
2019-06-07T02:12:42.364Z,91.84
2019-06-07T02:13:32.673Z,91.65
2019-06-07T02:14:33.777Z,92.03
2019-06-07T02:15:36.776Z,91.46
2019-06-07T02:16:32.839Z,91.17
2019-06-07T02:17:33.355Z,91.27
2019-06-07T02:18:34.928Z,90.99
2019-06-07T02:19:33.548Z,91.37
2019-06-07T02:20:34.417Z,91.17
2019-06-07T02:21:34.461Z,90.99
2019-06-07T02:22:33.170Z,91.17
2019-06-07T02:23:33.776Z,90.22
2019-06-07T02:24:35.783Z,90.13
2019-06-07T02:25:45.520Z,89.65
2019-06-07T02:26:33.396Z,89.94
2019-06-07T02:27:33.452Z,90.99
2019-06-07T02:28:44.418Z,91.56
2019-06-07T02:29:33.895Z,91.75
2019-06-07T02:30:45.871Z,91.17
2019-06-07T02:31:39.051Z,91.17
2019-06-07T02:32:36.654Z,90.99
2019-06-07T02:33:39.711Z,90.80
2019-06-07T02:34:38.827Z,90.13
2019-06-07T02:35:40.526Z,90.51
2019-06-07T02:36:41.056Z,90.70
2019-06-07T02:37:36.772Z,90.13
2019-06-07T02:38:37.514Z,90.51
2019-06-07T02:39:38.109Z,90.42
2019-06-07T02:40:37.258Z,90.89
2019-06-07T02:41:39.352Z,91.46
2019-06-07T02:42:38.956Z,92.79
2019-06-07T02:43:36.930Z,92.03
2019-06-07T02:44:38.916Z,92.51
2019-06-07T02:45:42.566Z,93.37
2019-06-07T02:46:44.798Z,93.65
2019-06-07T02:47:37.656Z,93.74
2019-06-07T02:48:39.818Z,92.89
2019-06-07T02:49:41.156Z,92.60
2019-06-07T02:50:37.988Z,92.99
2019-06-07T02:51:41.093Z,93.55
2019-06-07T02:52:40.391Z,94.13
2019-06-07T02:53:40.060Z,94.03
2019-06-07T02:54:39.824Z,94.22
2019-06-07T02:56:26.541Z,93.74
2019-06-07T02:56:48.734Z,93.55
2019-06-07T02:57:36.996Z,93.74
2019-06-07T02:58:41.165Z,93.18
2019-06-07T03:00:04.289Z,93.08
2019-06-07T03:01:00.091Z,93.84
2019-06-07T03:01:39.418Z,94.89
2019-06-07T03:02:41.014Z,94.32
2019-06-07T03:03:39.582Z,93.65
2019-06-07T03:04:41.556Z,93.74
2019-06-07T03:05:40.297Z,93.74
2019-06-07T03:06:39.529Z,93.65
2019-06-07T03:07:39.128Z,94.89
2019-06-07T03:08:36.761Z,94.32
2019-06-07T03:09:37.150Z,94.89
2019-06-07T03:10:37.743Z,94.60
2019-06-07T03:11:37.624Z,94.60
2019-06-07T03:12:35.937Z,93.55
2019-06-07T03:13:37.407Z,93.65
2019-06-07T03:14:36.046Z,94.32
2019-06-07T03:15:47.738Z,94.32
2019-06-07T03:16:37.287Z,94.89
2019-06-07T03:17:38.378Z,93.98
2019-06-07T03:18:36.543Z,93.27
2019-06-07T03:19:37.850Z,93.23
2019-06-07T03:20:36.889Z,93.70
2019-06-07T03:21:36.550Z,93.32
2019-06-07T03:22:39.944Z,93.23
2019-06-07T03:23:36.542Z,93.51
2019-06-07T03:24:41.682Z,93.23
2019-06-07T03:25:37.369Z,93.89
2019-06-07T03:27:23.992Z,93.60
2019-06-07T03:27:48.867Z,92.27
2019-06-07T03:28:39.173Z,92.36
2019-06-07T03:29:36.874Z,92.18
2019-06-07T03:30:52.781Z,93.23
2019-06-07T03:31:42.793Z,93.04
2019-06-07T03:32:46.434Z,93.65
2019-06-07T03:33:42.918Z,93.37
2019-06-07T03:34:41.235Z,93.51
2019-06-07T03:35:37.678Z,93.70
2019-06-07T03:36:40.033Z,93.04
2019-06-07T03:37:40.645Z,92.18
2019-06-07T03:38:39.658Z,92.46
2019-06-07T03:39:40.947Z,93.18
2019-06-07T03:40:39.948Z,93.70
2019-06-07T03:41:49.906Z,93.23
2019-06-07T03:42:38.766Z,94.27
2019-06-07T03:43:40.453Z,93.70
2019-06-07T03:44:40.626Z,93.32
2019-06-07T03:45:41.235Z,93.41
2019-06-07T03:46:41.190Z,93.37
2019-06-07T03:47:41.375Z,92.22
2019-06-07T03:48:41.167Z,92.22
2019-06-07T03:49:42.132Z,94.46
2019-06-07T03:50:41.933Z,94.22
2019-06-07T03:51:39.637Z,94.22
2019-06-07T03:52:40.637Z,94.13
2019-06-07T03:53:40.760Z,94.93
2019-06-07T03:54:39.897Z,93.23
2019-06-07T03:55:41.185Z,94.18
2019-06-07T03:56:40.967Z,93.70
2019-06-07T03:58:29.340Z,94.56
2019-06-07T03:58:49.033Z,92.46
2019-06-07T03:59:41.236Z,92.75
2019-06-07T04:00:42.582Z,93.41
2019-06-07T04:01:41.140Z,94.22
2019-06-07T04:02:41.867Z,92.70
2019-06-07T04:03:46.352Z,91.75
2019-06-07T04:04:39.917Z,92.22
2019-06-07T04:05:43.350Z,93.84
2019-06-07T04:06:41.958Z,94.32
2019-06-07T04:07:43.709Z,93.18
2019-06-07T04:08:42.086Z,94.60
2019-06-07T04:09:42.669Z,94.22
2019-06-07T04:10:55.838Z,94.03
2019-06-07T04:11:40.820Z,94.13
2019-06-07T04:12:43.797Z,92.70
2019-06-07T04:13:42.943Z,94.98
2019-06-07T04:14:42.511Z,95.84
2019-06-07T04:15:41.322Z,94.98
2019-06-07T04:16:44.121Z,93.94
2019-06-07T04:17:55.917Z,94.13
2019-06-07T04:18:40.760Z,94.89
2019-06-07T04:19:43.293Z,93.94
2019-06-07T04:20:41.425Z,93.84
2019-06-07T04:21:42.697Z,94.22
2019-06-07T04:22:42.622Z,93.84
2019-06-07T04:23:45.290Z,94.98
2019-06-07T04:24:41.933Z,93.55
2019-06-07T04:25:42.596Z,94.89
2019-06-07T04:26:43.557Z,95.94
2019-06-07T04:27:41.058Z,93.55
2019-06-07T04:29:30.816Z,94.79
2019-06-07T04:30:04.311Z,93.84
2019-06-07T04:30:41.800Z,94.42
2019-06-07T04:31:42.841Z,95.75
2019-06-07T04:32:44.754Z,95.17
2019-06-07T04:33:43.633Z,95.17
2019-06-07T04:34:43.034Z,94.89
2019-06-07T04:35:42.891Z,94.89
2019-06-07T04:36:55.291Z,93.84
2019-06-07T04:37:41.460Z,94.98
2019-06-07T04:38:42.640Z,94.89
2019-06-07T04:39:44.667Z,96.12
2019-06-07T04:40:42.942Z,95.75
2019-06-07T04:41:41.052Z,95.17
2019-06-07T04:42:44.777Z,95.17
2019-06-07T04:43:41.286Z,94.22
2019-06-07T04:44:42.751Z,93.55
2019-06-07T04:45:50.278Z,94.89
2019-06-07T04:46:42.815Z,91.65
2019-06-07T04:47:42.392Z,93.03
2019-06-07T04:48:43.319Z,95.94
2019-06-07T04:49:44.080Z,95.94
2019-06-07T04:50:44.080Z,96.31
2019-06-07T04:51:42.368Z,95.08
2019-06-07T04:52:44.836Z,95.56
2019-06-07T04:53:43.355Z,94.79
2019-06-07T04:54:45.760Z,95.36
2019-06-07T04:55:42.184Z,95.75
2019-06-07T04:56:44.463Z,95.17
2019-06-07T04:57:43.087Z,94.22
2019-06-07T04:58:43.116Z,95.65
2019-06-07T05:00:10.531Z,94.79
2019-06-07T05:00:55.649Z,95.27
2019-06-07T05:01:42.783Z,95.51
2019-06-07T05:02:43.397Z,96.65
2019-06-07T05:03:44.237Z,97.31
2019-06-07T05:04:42.586Z,94.84
2019-06-07T05:05:43.865Z,95.70
2019-06-07T05:06:42.569Z,95.22
2019-06-07T05:07:45.981Z,95.89
2019-06-07T05:08:43.850Z,95.22
2019-06-07T05:09:43.359Z,93.41
2019-06-07T05:10:43.872Z,94.37
2019-06-07T05:11:44.864Z,94.17
2019-06-07T05:12:44.302Z,93.70
2019-06-07T05:13:43.846Z,93.13
2019-06-07T05:14:44.336Z,91.31
2019-06-07T05:15:42.723Z,92.36
2019-06-07T05:16:44.356Z,93.22
2019-06-07T05:17:44.949Z,93.32
2019-06-07T05:18:43.379Z,93.22
2019-06-07T05:19:44.553Z,92.74
2019-06-07T05:20:44.442Z,91.46
2019-06-07T05:22:01.519Z,92.32
2019-06-07T05:22:45.241Z,92.50
2019-06-07T05:24:05.737Z,92.46
2019-06-07T05:24:43.892Z,92.41
2019-06-07T05:25:44.783Z,92.79
2019-06-07T05:26:43.339Z,93.37
2019-06-07T05:27:46.766Z,92.60
2019-06-07T05:28:43.450Z,93.93
2019-06-07T05:29:44.302Z,94.89
2019-06-07T05:31:03.747Z,93.93
2019-06-07T05:31:45.502Z,94.13
2019-06-07T05:32:46.117Z,94.89
2019-06-07T05:33:43.784Z,95.46
2019-06-07T05:34:47.232Z,94.89
2019-06-07T05:35:44.266Z,94.22
2019-06-07T05:36:45.069Z,95.08
2019-06-07T05:37:48.203Z,94.89
2019-06-07T05:38:44.863Z,95.36
2019-06-07T05:39:46.463Z,94.98
2019-06-07T05:40:48.722Z,94.27
2019-06-07T05:41:44.574Z,94.93
2019-06-07T05:42:46.692Z,94.56
2019-06-07T05:43:55.082Z,95.22
2019-06-07T05:44:45.822Z,95.22
2019-06-07T05:45:46.848Z,95.98
2019-06-07T05:46:47.230Z,96.27
2019-06-07T05:47:50.862Z,95.79
2019-06-07T05:48:44.580Z,95.22
2019-06-07T05:49:47.118Z,95.79
2019-06-07T05:50:55.347Z,93.79
2019-06-07T05:51:45.286Z,94.08
2019-06-07T05:52:47.484Z,93.98
2019-06-07T05:53:45.967Z,94.37
2019-06-07T05:54:45.537Z,95.27
2019-06-07T05:55:47.513Z,95.75
2019-06-07T05:56:45.490Z,96.61
2019-06-07T05:57:49.112Z,96.70
2019-06-07T05:58:45.147Z,98.42
2019-06-07T05:59:47.565Z,98.27
2019-06-07T06:00:47.597Z,99.99
2019-06-07T06:01:55.947Z,99.90
2019-06-07T06:03:04.341Z,99.99
2019-06-07T06:03:48.045Z,99.90
2019-06-07T06:04:49.007Z,99.61
2019-06-07T06:05:53.769Z,99.71
2019-06-07T06:06:47.371Z,99.99
2019-06-07T06:07:50.677Z,99.99
2019-06-07T06:08:47.902Z,99.99
2019-06-07T06:09:46.173Z,99.99
2019-06-07T06:10:48.639Z,99.99
2019-06-07T06:11:59.706Z,99.99
2019-06-07T06:12:51.504Z,99.99
2019-06-07T06:14:05.642Z,99.99
2019-06-07T06:14:47.078Z,99.99
2019-06-07T06:16:00.572Z,99.99
2019-06-07T06:16:49.397Z,99.99
2019-06-07T06:17:49.985Z,99.99
2019-06-07T06:18:47.706Z,99.99
2019-06-07T06:19:52.030Z,99.99
2019-06-07T06:21:09.759Z,99.99
2019-06-07T06:21:46.574Z,99.99
2019-06-07T06:22:48.714Z,99.99
2019-06-07T06:23:50.759Z,99.99
2019-06-07T06:25:17.774Z,99.99
2019-06-07T06:25:55.605Z,99.99
2019-06-07T06:26:52.242Z,99.99
2019-06-07T06:28:49.451Z,99.99
2019-06-07T06:29:50.090Z,99.99
2019-06-07T06:30:48.021Z,99.99
2019-06-07T06:32:39.183Z,99.99
2019-06-07T06:32:56.911Z,99.99
2019-06-07T06:33:49.556Z,99.99
2019-06-07T06:34:50.703Z,99.99
2019-06-07T06:35:49.409Z,99.99
2019-06-07T06:36:50.356Z,99.99
2019-06-07T06:37:52.962Z,99.99
2019-06-07T06:38:49.840Z,99.99
2019-06-07T06:39:49.966Z,99.99
2019-06-07T06:40:54.788Z,99.99
2019-06-07T06:41:58.473Z,99.99
2019-06-07T06:42:50.095Z,99.99
2019-06-07T06:43:52.110Z,99.99
2019-06-07T06:44:53.618Z,99.99
2019-06-07T06:45:50.575Z,99.99
2019-06-07T06:46:57.020Z,99.99
2019-06-07T06:47:50.538Z,99.99
2019-06-07T06:48:54.485Z,99.99
2019-06-07T06:49:50.017Z,99.99
2019-06-07T06:50:52.235Z,99.99
2019-06-07T06:51:53.358Z,99.99
2019-06-07T06:52:53.456Z,99.99
2019-06-07T06:53:49.889Z,99.99
2019-06-07T06:54:55.386Z,99.99
2019-06-07T06:55:51.175Z,99.99
2019-06-07T06:56:52.041Z,99.99
2019-06-07T06:57:51.189Z,99.99
2019-06-07T06:59:30.748Z,99.99
2019-06-07T06:59:51.111Z,99.99
2019-06-07T07:00:56.886Z,99.99
2019-06-07T07:01:50.959Z,99.99
2019-06-07T07:03:41.813Z,99.99
2019-06-07T07:04:06.799Z,99.99
2019-06-07T07:04:52.540Z,99.99
2019-06-07T07:05:50.828Z,99.99
2019-06-07T07:06:50.627Z,99.99
2019-06-07T07:07:51.625Z,99.99
2019-06-07T07:08:50.911Z,99.99
2019-06-07T07:09:54.750Z,99.99
2019-06-07T07:10:52.662Z,99.99
2019-06-07T07:12:04.174Z,99.99
2019-06-07T07:12:51.203Z,99.99
2019-06-07T07:13:55.769Z,99.99
2019-06-07T07:14:52.155Z,99.99
2019-06-07T07:15:55.202Z,99.99
2019-06-07T07:16:54.560Z,99.99
2019-06-07T07:18:03.704Z,99.99
2019-06-07T07:18:52.919Z,99.99
2019-06-07T07:19:52.155Z,99.99
2019-06-07T07:20:51.283Z,99.99
2019-06-07T07:21:52.959Z,99.99
2019-06-07T07:22:53.583Z,99.99
2019-06-07T07:24:15.166Z,99.99
2019-06-07T07:24:53.341Z,99.99
2019-06-07T07:25:55.376Z,99.99
2019-06-07T07:26:53.149Z,99.99
2019-06-07T07:27:53.838Z,99.99
2019-06-07T07:28:51.762Z,99.99
2019-06-07T07:30:10.264Z,99.99
2019-06-07T07:30:54.856Z,99.99
2019-06-07T07:31:53.810Z,99.99
2019-06-07T07:32:52.991Z,99.99
2019-06-07T07:34:54.509Z,99.99
2019-06-07T07:36:11.904Z,99.99
2019-06-07T07:36:57.897Z,99.99
2019-06-07T07:37:55.833Z,99.99
2019-06-07T07:39:00.437Z,99.99
2019-06-07T07:39:54.297Z,99.99
2019-06-07T07:41:13.321Z,99.99
2019-06-07T07:42:13.776Z,99.99
2019-06-07T07:42:54.574Z,99.99
2019-06-07T07:43:59.989Z,99.99
2019-06-07T07:44:54.598Z,99.99
2019-06-07T07:45:59.069Z,99.99
2019-06-07T07:46:53.838Z,99.99
2019-06-07T07:48:08.792Z,99.99
2019-06-07T07:48:54.243Z,99.99
2019-06-07T07:49:52.985Z,99.99
2019-06-07T07:50:56.899Z,99.99
2019-06-07T07:51:55.037Z,99.99
2019-06-07T07:52:59.200Z,99.99
2019-06-07T07:54:02.081Z,99.99
2019-06-07T07:54:52.816Z,99.99
2019-06-07T07:55:56.612Z,99.99
2019-06-07T07:56:55.611Z,99.99
2019-06-07T07:58:00.904Z,99.99
2019-06-07T07:58:57.959Z,99.99
2019-06-07T08:00:06.104Z,99.99
2019-06-07T08:01:00.365Z,99.99
2019-06-07T08:01:55.536Z,99.99
2019-06-07T08:02:53.754Z,99.99
2019-06-07T08:03:54.903Z,99.99
2019-06-07T08:05:20.670Z,99.99
2019-06-07T08:05:54.914Z,98.58
2019-06-07T08:06:54.733Z,99.15
2019-06-07T08:07:56.563Z,99.30
2019-06-07T08:08:55.769Z,97.96
2019-06-07T08:09:59.511Z,97.28
2019-06-07T08:10:58.060Z,97.76
2019-06-07T08:11:59.610Z,97.09
2019-06-07T08:13:16.247Z,96.51
2019-06-07T08:13:56.713Z,96.51
2019-06-07T08:14:57.529Z,95.75
2019-06-07T08:15:58.621Z,95.40
2019-06-07T08:16:54.382Z,95.12
2019-06-07T08:17:58.102Z,94.73
2019-06-07T08:18:57.478Z,94.45
2019-06-07T08:19:55.030Z,94.26
2019-06-07T08:21:17.206Z,93.68
2019-06-07T08:21:55.521Z,92.29
2019-06-07T08:22:58.850Z,92.43
2019-06-07T08:23:58.270Z,93.29
2019-06-07T08:24:55.323Z,92.19
2019-06-07T08:25:58.497Z,91.75
2019-06-07T08:27:17.713Z,91.42
2019-06-07T08:27:56.817Z,90.94
2019-06-07T08:28:58.506Z,91.47
2019-06-07T08:30:07.840Z,92.72
2019-06-07T08:31:03.409Z,92.52
2019-06-07T08:31:56.318Z,92.57
2019-06-07T08:32:58.424Z,90.12
2019-06-07T08:33:57.056Z,89.92
2019-06-07T08:34:59.657Z,88.77
2019-06-07T08:36:10.465Z,88.57
2019-06-07T08:36:58.394Z,88.87
2019-06-07T08:38:22.105Z,88.53
2019-06-07T08:38:57.882Z,88.43
2019-06-07T08:39:56.770Z,87.23
2019-06-07T08:41:02.247Z,88.00
2019-06-07T08:42:13.363Z,87.56
2019-06-07T08:43:19.620Z,87.08
2019-06-07T08:43:56.810Z,86.99
2019-06-07T08:45:01.613Z,86.46
2019-06-07T08:46:01.171Z,86.18
2019-06-07T08:47:12.564Z,86.27
2019-06-07T08:47:58.021Z,86.94
2019-06-07T08:48:57.175Z,87.23
2019-06-07T08:49:59.587Z,86.85
2019-06-07T08:50:58.736Z,86.99
2019-06-07T08:52:04.516Z,86.51
2019-06-07T08:53:02.858Z,85.54
2019-06-07T08:54:15.852Z,84.58
2019-06-07T08:54:57.835Z,84.58
2019-06-07T08:56:04.413Z,84.48
2019-06-07T08:57:13.222Z,84.19
2019-06-07T08:58:03.413Z,84.23
2019-06-07T08:59:00.425Z,83.85
2019-06-07T08:59:59.038Z,82.98
2019-06-07T09:00:59.385Z,82.16
2019-06-07T09:01:59.806Z,81.39
2019-06-07T09:02:58.917Z,81.87
2019-06-07T09:04:02.622Z,81.68
2019-06-07T09:04:59.211Z,81.39
2019-06-07T09:05:57.080Z,81.25
2019-06-07T09:07:14.836Z,81.48
2019-06-07T09:08:22.273Z,82.16
2019-06-07T09:09:00.386Z,81.58
2019-06-07T09:10:01.867Z,81.68
2019-06-07T09:10:58.926Z,80.71
2019-06-07T09:11:59.411Z,80.52
2019-06-07T09:13:00.321Z,80.43
2019-06-07T09:13:57.720Z,80.62
2019-06-07T09:15:12.066Z,81.10
2019-06-07T09:16:03.429Z,80.91
2019-06-07T09:17:04.327Z,80.85
2019-06-07T09:18:34.867Z,80.76
2019-06-07T09:18:58.981Z,80.94
2019-06-07T09:19:59.035Z,81.14
2019-06-07T09:20:58.226Z,80.79
2019-06-07T09:22:01.587Z,79.93
2019-06-07T09:23:01.705Z,80.22
2019-06-07T09:24:02.502Z,79.93
2019-06-07T09:25:04.310Z,79.64
2019-06-07T09:26:08.037Z,80.31
2019-06-07T09:26:58.321Z,79.74
2019-06-07T09:28:00.537Z,79.87
2019-06-07T09:28:58.452Z,79.16
2019-06-07T09:30:03.172Z,79.39
2019-06-07T09:30:59.754Z,78.81
2019-06-07T09:32:00.612Z,78.61
2019-06-07T09:32:58.966Z,78.33
2019-06-07T09:34:05.872Z,78.52
2019-06-07T09:35:03.910Z,76.78
2019-06-07T09:36:00.393Z,77.46
2019-06-07T09:37:03.430Z,77.26
2019-06-07T09:38:18.195Z,77.46
2019-06-07T09:38:59.554Z,76.98
2019-06-07T09:40:05.741Z,76.98
2019-06-07T09:41:00.446Z,77.94
2019-06-07T09:42:00.481Z,78.03
2019-06-07T09:43:47.591Z,77.84
2019-06-07T09:44:18.973Z,77.84
2019-06-07T09:45:03.190Z,78.13
2019-06-07T09:46:01.020Z,77.21
2019-06-07T09:47:20.145Z,76.53
2019-06-07T09:48:02.291Z,76.24
2019-06-07T09:49:13.925Z,75.18
2019-06-07T09:50:04.091Z,75.47
2019-06-07T09:51:01.968Z,76.43
2019-06-07T09:52:00.518Z,76.15
2019-06-07T09:53:16.212Z,76.95
2019-06-07T09:54:01.266Z,76.09
2019-06-07T09:55:09.311Z,76.09
2019-06-07T09:56:05.626Z,75.18
2019-06-07T09:57:02.662Z,75.51
2019-06-07T09:58:03.782Z,76.28
2019-06-07T09:59:02.863Z,76.09
2019-06-07T10:00:01.840Z,75.31
2019-06-07T10:01:04.460Z,76.18
2019-06-07T10:02:01.462Z,75.41
2019-06-07T10:03:08.865Z,74.96
2019-06-07T10:04:04.658Z,75.02
2019-06-07T10:05:04.081Z,74.58
2019-06-07T10:06:03.439Z,74.00
2019-06-07T10:07:09.044Z,73.13
2019-06-07T10:08:15.408Z,73.46
2019-06-07T10:10:07.123Z,73.13
2019-06-07T10:11:00.353Z,72.39
2019-06-07T10:12:00.399Z,72.20
2019-06-07T10:13:01.649Z,72.20
2019-06-07T10:14:00.381Z,71.84
2019-06-07T10:15:00.688Z,70.78
2019-06-07T10:16:00.877Z,70.34
2019-06-07T10:17:00.915Z,68.69
2019-06-07T10:18:00.795Z,69.08
2019-06-07T10:19:01.610Z,68.21
2019-06-07T10:20:02.594Z,67.85
2019-06-07T10:21:01.442Z,67.14
2019-06-07T10:22:01.347Z,66.47
2019-06-07T10:23:01.643Z,64.69
2019-06-07T10:24:01.275Z,64.40
2019-06-07T10:25:02.070Z,63.56
2019-06-07T10:26:01.590Z,62.65
2019-06-07T10:27:01.742Z,63.72
2019-06-07T10:28:01.839Z,62.82
2019-06-07T10:29:01.885Z,64.27
2019-06-07T10:30:02.331Z,65.82
2019-06-07T10:31:02.088Z,64.75
2019-06-07T10:32:02.256Z,64.92
2019-06-07T10:33:02.232Z,63.95
2019-06-07T10:34:02.329Z,64.14
2019-06-07T10:35:03.281Z,64.62
2019-06-07T10:36:02.494Z,63.49
2019-06-07T10:37:03.318Z,62.75
2019-06-07T10:38:02.467Z,61.87
2019-06-07T10:39:02.915Z,60.44
2019-06-07T10:40:02.896Z,60.15
2019-06-07T10:41:02.844Z,60.61
2019-06-07T10:42:04.150Z,60.35
2019-06-07T10:43:03.172Z,59.33
2019-06-07T10:44:03.307Z,59.67
2019-06-07T10:45:04.470Z,59.95
2019-06-07T10:46:03.653Z,59.76
2019-06-07T10:47:03.991Z,59.38
2019-06-07T10:48:03.572Z,60.58
2019-06-07T10:49:03.819Z,60.23
2019-06-07T10:50:03.863Z,61.65
2019-06-07T10:51:04.179Z,63.62
2019-06-07T10:52:05.039Z,63.92
2019-06-07T10:53:04.292Z,64.85
2019-06-07T10:54:10.696Z,66.11
2019-06-07T10:55:04.471Z,66.27
2019-06-07T10:56:04.810Z,66.47
2019-06-07T10:57:04.832Z,66.82
2019-06-07T10:58:04.726Z,67.46
2019-06-07T10:59:05.107Z,68.72
2019-06-07T11:00:05.204Z,69.04
2019-06-07T11:01:05.172Z,68.56
2019-06-07T11:02:05.596Z,68.91
2019-06-07T11:03:05.836Z,68.27
2019-06-07T11:04:05.621Z,68.43
2019-06-07T11:05:05.785Z,68.82
2019-06-07T11:06:05.613Z,69.40
2019-06-07T11:07:06.275Z,69.78
2019-06-07T11:08:04.130Z,69.88
2019-06-07T11:09:04.201Z,69.98
2019-06-07T11:10:10.687Z,70.50
2019-06-07T11:11:04.328Z,69.92
2019-06-07T11:12:06.298Z,69.17
2019-06-07T11:13:06.093Z,69.27
2019-06-07T11:14:06.453Z,68.88
2019-06-07T11:15:04.647Z,68.82
2019-06-07T11:16:04.785Z,68.43
2019-06-07T11:17:05.244Z,69.43
2019-06-07T11:18:06.119Z,70.17
2019-06-07T11:19:06.048Z,71.58
2019-06-07T11:20:06.048Z,72.74
2019-06-07T11:21:06.038Z,72.94
2019-06-07T11:22:06.070Z,73.03
2019-06-07T11:23:06.685Z,72.20
2019-06-07T11:24:06.140Z,71.81
2019-06-07T11:25:06.887Z,71.78
2019-06-07T11:26:06.174Z,71.72
2019-06-07T11:27:07.130Z,71.42
2019-06-07T11:28:06.333Z,70.94
2019-06-07T11:29:06.638Z,71.14
2019-06-07T11:30:06.229Z,71.52
2019-06-07T11:31:06.337Z,71.81
2019-06-07T11:32:06.358Z,72.00
2019-06-07T11:33:06.412Z,71.97
2019-06-07T11:34:06.328Z,73.19
2019-06-07T11:35:06.391Z,73.28
2019-06-07T11:36:06.682Z,74.12
2019-06-07T11:37:07.346Z,75.57
2019-06-07T11:38:06.390Z,75.72
2019-06-07T11:39:06.514Z,75.57
2019-06-07T11:40:07.866Z,75.62
2019-06-07T11:41:07.346Z,76.01
2019-06-07T11:42:07.796Z,75.72
2019-06-07T11:43:06.676Z,76.20
2019-06-07T11:44:06.724Z,76.10
2019-06-07T11:45:07.791Z,76.20
2019-06-07T11:46:06.752Z,76.01
2019-06-07T11:47:08.117Z,76.59
2019-06-07T11:48:07.186Z,76.30
2019-06-07T11:49:08.172Z,76.40
2019-06-07T11:50:07.287Z,76.50
2019-06-07T11:51:07.256Z,77.36
2019-06-07T11:52:07.308Z,77.84
2019-06-07T11:53:08.514Z,78.27
2019-06-07T11:54:07.769Z,77.84
2019-06-07T11:55:08.826Z,79.00
2019-06-07T11:56:07.864Z,78.91
2019-06-07T11:57:07.307Z,79.19
2019-06-07T11:58:11.644Z,79.00
2019-06-07T11:59:07.434Z,78.52
2019-06-07T12:00:07.496Z,79.62
2019-06-07T12:01:08.046Z,78.94
2019-06-07T12:02:07.622Z,78.11
2019-06-07T12:03:07.686Z,76.80
2019-06-07T12:04:07.748Z,75.45
2019-06-07T12:05:07.812Z,75.54
2019-06-07T12:06:08.324Z,75.93
2019-06-07T12:07:10.849Z,75.74
2019-06-07T12:08:08.088Z,73.55
2019-06-07T12:09:08.579Z,72.24
2019-06-07T12:10:08.570Z,72.14
2019-06-07T12:11:08.194Z,71.46
2019-06-07T12:12:08.258Z,71.01
2019-06-07T12:13:08.436Z,70.53
2019-06-07T12:14:08.708Z,70.70
2019-06-07T12:15:08.868Z,69.95
2019-06-07T12:16:09.081Z,69.27
2019-06-07T12:17:09.014Z,67.47
2019-06-07T12:18:09.200Z,67.79
2019-06-07T12:19:09.688Z,68.12
2019-06-07T12:20:10.799Z,67.56
2019-06-07T12:21:09.566Z,68.63
2019-06-07T12:22:09.859Z,69.15
2019-06-07T12:23:10.007Z,68.50
2019-06-07T12:24:10.332Z,68.63
2019-06-07T12:25:10.374Z,67.72
2019-06-07T12:26:10.255Z,68.02
2019-06-07T12:27:10.288Z,68.21
2019-06-07T12:28:10.633Z,68.12
2019-06-07T12:29:10.657Z,68.40
2019-06-07T12:30:15.454Z,68.66
2019-06-07T12:31:10.758Z,69.27
2019-06-07T12:32:09.584Z,68.66
2019-06-07T12:33:09.651Z,69.24
2019-06-07T12:34:09.714Z,68.54
2019-06-07T12:35:09.783Z,66.24
2019-06-07T12:36:09.853Z,64.14
2019-06-07T12:37:09.915Z,62.35
2019-06-07T12:38:09.985Z,61.57
2019-06-07T12:39:10.051Z,60.95
2019-06-07T12:40:10.212Z,60.24
2019-06-07T12:41:10.191Z,60.41
2019-06-07T12:42:10.258Z,60.28
2019-06-07T12:43:10.326Z,61.38
2019-06-07T12:44:10.417Z,60.27
2019-06-07T12:45:10.467Z,59.52
2019-06-07T12:46:14.482Z,58.67
2019-06-07T12:47:10.606Z,58.81
2019-06-07T12:48:10.682Z,59.23
2019-06-07T12:49:10.746Z,59.23
2019-06-07T12:50:10.818Z,59.92
2019-06-07T12:51:10.888Z,62.19
2019-06-07T12:52:13.812Z,62.26
2019-06-07T12:53:11.075Z,62.91
2019-06-07T12:54:11.119Z,64.17
2019-06-07T12:55:11.172Z,64.33
2019-06-07T12:56:11.244Z,63.81
2019-06-07T12:57:11.317Z,63.39
2019-06-07T12:58:11.989Z,64.23
2019-06-07T12:59:12.027Z,63.62